Gurley, Nebraska
Current Conditions -  °F | °C
As of 9:53 PM on Wednesday 22 Oct 2014 (Local Time) from KSNY Reporting Station
Broken Clouds Broken Clouds  
Wind Chill: 41°   Ceiling: 8000
Heat Index: 46°   Visibility: 10mi
Dew Point: 37°   Wind: 9mph
Humidity: 71%   Direction: 230°SW
Pressure: 30.12"   Gusts: NA
Location:  41.32°N, 102.97°W
Report Text: KSNY 230353Z AUTO 23008KT 10SM BKN080 BKN100 08/03 A3012 RMK AO2 SLP181 T00780028
Loading
Personal Weather Stations






























Interactive Weather Map
Tropical Storm Tracking
New forecast layout! Learn more

10-Day Weather Forecast

Advertisements
Track Severe Weather on mobile